createdAt,value
2023-11-12T00:00:00.534Z,99521
2023-11-12T00:01:00.531Z,99521
2023-11-12T00:02:00.508Z,99521
2023-11-12T00:03:00.620Z,99521
2023-11-12T00:04:00.509Z,99521
2023-11-12T00:05:00.654Z,99520
2023-11-12T00:06:00.464Z,99520
2023-11-12T00:07:00.490Z,99520
2023-11-12T00:08:00.524Z,99520
2023-11-12T00:09:00.460Z,99520
2023-11-12T00:10:00.458Z,99521
2023-11-12T00:11:00.616Z,99521
2023-11-12T00:12:00.457Z,99521
2023-11-12T00:13:00.535Z,99521
2023-11-12T00:14:00.668Z,99521
2023-11-12T00:15:00.496Z,99513
2023-11-12T00:16:00.501Z,99513
2023-11-12T00:17:00.514Z,99513
2023-11-12T00:18:00.545Z,99513
2023-11-12T00:19:00.498Z,99513
2023-11-12T00:20:00.527Z,99510
2023-11-12T00:21:00.453Z,99510
2023-11-12T00:22:00.524Z,99510
2023-11-12T00:23:00.539Z,99510
2023-11-12T00:24:00.486Z,99510
2023-11-12T00:25:00.504Z,99503
2023-11-12T00:26:00.520Z,99503
2023-11-12T00:27:00.456Z,99503
2023-11-12T00:28:00.488Z,99503
2023-11-12T00:29:00.530Z,99503
2023-11-12T00:30:00.483Z,99503
2023-11-12T00:31:00.447Z,99503
2023-11-12T00:32:00.604Z,99503
2023-11-12T00:33:00.849Z,99503
2023-11-12T00:34:00.496Z,99503
2023-11-12T00:35:00.545Z,99506
2023-11-12T00:36:00.500Z,99506
2023-11-12T00:37:00.529Z,99506
2023-11-12T00:38:00.563Z,99506
2023-11-12T00:39:00.445Z,99506
2023-11-12T00:40:00.475Z,99502
2023-11-12T00:41:00.602Z,99502
2023-11-12T00:42:00.491Z,99502
2023-11-12T00:43:00.464Z,99502
2023-11-12T00:44:00.534Z,99502
2023-11-12T00:45:00.470Z,99498
2023-11-12T00:46:00.822Z,99498
2023-11-12T00:47:00.466Z,99498
2023-11-12T00:48:00.491Z,99498
2023-11-12T00:49:00.478Z,99498
2023-11-12T00:50:00.749Z,99493
2023-11-12T00:51:00.505Z,99493
2023-11-12T00:52:00.522Z,99493
2023-11-12T00:53:00.647Z,99493
2023-11-12T00:54:00.504Z,99493
2023-11-12T00:55:00.507Z,99492
2023-11-12T00:56:00.667Z,99492
2023-11-12T00:57:00.485Z,99492
2023-11-12T00:58:00.626Z,99492
2023-11-12T00:59:00.529Z,99492
2023-11-12T01:00:00.694Z,99486
2023-11-12T01:01:00.457Z,99486
2023-11-12T01:02:00.601Z,99486
2023-11-12T01:03:00.683Z,99486
2023-11-12T01:04:00.857Z,99486
2023-11-12T01:05:00.587Z,99482
2023-11-12T01:06:00.553Z,99482
2023-11-12T01:07:00.461Z,99482
2023-11-12T01:08:00.539Z,99482
2023-11-12T01:09:00.486Z,99482
2023-11-12T01:10:00.587Z,99469
2023-11-12T01:11:00.534Z,99469
2023-11-12T01:12:00.653Z,99469
2023-11-12T01:13:00.542Z,99469
2023-11-12T01:15:00.501Z,99471
2023-11-12T01:16:00.618Z,99471
2023-11-12T01:17:00.495Z,99471
2023-11-12T01:18:00.492Z,99471
2023-11-12T01:19:00.487Z,99471
2023-11-12T01:20:00.508Z,99451
2023-11-12T01:21:00.500Z,99451
2023-11-12T01:22:00.587Z,99451
2023-11-12T01:23:00.496Z,99451
2023-11-12T01:24:00.499Z,99451
2023-11-12T01:25:00.458Z,99451
2023-11-12T01:26:00.488Z,99451
2023-11-12T01:27:00.457Z,99451
2023-11-12T01:28:00.490Z,99451
2023-11-12T01:29:00.475Z,99451
2023-11-12T01:30:00.688Z,99442
2023-11-12T01:31:01.424Z,99442
2023-11-12T01:32:00.480Z,99442
2023-11-12T01:33:00.545Z,99442
2023-11-12T01:34:00.523Z,99442
2023-11-12T01:35:01.355Z,99438
2023-11-12T01:36:00.756Z,99438
2023-11-12T01:37:00.699Z,99438
2023-11-12T01:38:00.534Z,99438
2023-11-12T01:39:00.500Z,99438
2023-11-12T01:40:00.492Z,99440
2023-11-12T01:41:01.001Z,99440
2023-11-12T01:42:00.465Z,99440
2023-11-12T01:43:00.548Z,99440
2023-11-12T01:44:00.483Z,99440
2023-11-12T01:45:00.602Z,99431
2023-11-12T01:46:00.912Z,99431
2023-11-12T01:47:00.598Z,99431
2023-11-12T01:48:01.257Z,99431
2023-11-12T01:49:00.779Z,99431
2023-11-12T01:50:00.493Z,99434
2023-11-12T01:51:00.629Z,99434
2023-11-12T01:52:00.540Z,99434
2023-11-12T01:53:00.715Z,99434
2023-11-12T01:54:00.861Z,99434
2023-11-12T01:55:01.603Z,99430
2023-11-12T01:56:00.532Z,99430
2023-11-12T01:57:00.873Z,99430
2023-11-12T01:58:00.841Z,99430
2023-11-12T01:59:00.578Z,99430
2023-11-12T02:00:01.049Z,99429
2023-11-12T02:01:00.480Z,99429
2023-11-12T02:02:00.946Z,99429
2023-11-12T02:03:03.532Z,99429
2023-11-12T02:04:01.083Z,99429
2023-11-12T02:05:00.509Z,99432
2023-11-12T02:06:00.498Z,99432
2023-11-12T02:07:00.463Z,99432
2023-11-12T02:08:00.619Z,99432
2023-11-12T02:09:00.542Z,99432
2023-11-12T02:10:00.497Z,99434
2023-11-12T02:11:00.504Z,99434
2023-11-12T02:12:00.494Z,99434
2023-11-12T02:13:00.491Z,99434
2023-11-12T02:14:01.168Z,99434
2023-11-12T02:15:00.954Z,99438
2023-11-12T02:16:00.488Z,99438
2023-11-12T02:17:00.446Z,99438
2023-11-12T02:18:00.589Z,99438
2023-11-12T02:19:00.504Z,99438
2023-11-12T02:20:02.201Z,99439
2023-11-12T02:21:01.299Z,99439
2023-11-12T02:22:00.536Z,99439
2023-11-12T02:23:00.496Z,99439
2023-11-12T02:24:00.486Z,99439
2023-11-12T02:25:00.909Z,99440
2023-11-12T02:26:00.468Z,99440
2023-11-12T02:27:00.484Z,99440
2023-11-12T02:28:00.470Z,99440
2023-11-12T02:29:00.459Z,99440
2023-11-12T02:30:00.571Z,99438
2023-11-12T02:31:00.534Z,99438
2023-11-12T02:32:00.474Z,99438
2023-11-12T02:33:00.469Z,99438
2023-11-12T02:34:00.490Z,99438
2023-11-12T02:35:00.675Z,99433
2023-11-12T02:36:00.481Z,99433
2023-11-12T02:37:00.480Z,99433
2023-11-12T02:38:00.461Z,99433
2023-11-12T02:39:00.735Z,99433
2023-11-12T02:40:00.459Z,99430
2023-11-12T02:41:00.872Z,99430
2023-11-12T02:42:00.469Z,99430
2023-11-12T02:43:00.450Z,99430
2023-11-12T02:44:00.455Z,99430
2023-11-12T02:45:00.459Z,99422
2023-11-12T02:46:00.497Z,99422
2023-11-12T02:47:00.453Z,99422
2023-11-12T02:48:00.609Z,99422
2023-11-12T02:49:03.633Z,99422
2023-11-12T02:50:30.360Z,99419
2023-11-12T02:51:00.470Z,99419
2023-11-12T02:52:00.923Z,99419
2023-11-12T02:53:01.281Z,99419
2023-11-12T02:54:00.464Z,99419
2023-11-12T02:55:00.719Z,99415
2023-11-12T02:56:00.524Z,99415
2023-11-12T02:57:01.448Z,99415
2023-11-12T02:58:00.479Z,99415
2023-11-12T02:59:00.500Z,99415
2023-11-12T03:00:00.531Z,99412
2023-11-12T03:01:00.555Z,99412
2023-11-12T03:02:00.456Z,99412
2023-11-12T03:03:01.088Z,99412
2023-11-12T03:04:00.620Z,99412
2023-11-12T03:05:00.486Z,99415
2023-11-12T03:06:00.453Z,99415
2023-11-12T03:07:00.496Z,99415
2023-11-12T03:08:00.721Z,99415
2023-11-12T03:09:00.489Z,99415
2023-11-12T03:10:00.517Z,99417
2023-11-12T03:11:00.457Z,99417
2023-11-12T03:12:00.504Z,99417
2023-11-12T03:13:00.489Z,99417
2023-11-12T03:14:00.504Z,99417
2023-11-12T03:15:00.577Z,99404
2023-11-12T03:16:00.503Z,99404
2023-11-12T03:17:00.501Z,99404
2023-11-12T03:18:00.496Z,99404
2023-11-12T03:19:00.858Z,99404
2023-11-12T03:20:00.721Z,99408
2023-11-12T03:21:00.500Z,99408
2023-11-12T03:22:00.557Z,99408
2023-11-12T03:23:00.484Z,99408
2023-11-12T03:24:00.472Z,99408
2023-11-12T03:25:01.192Z,99407
2023-11-12T03:26:00.475Z,99407
2023-11-12T03:27:00.488Z,99407
2023-11-12T03:28:00.458Z,99407
2023-11-12T03:29:00.487Z,99407
2023-11-12T03:30:00.505Z,99397
2023-11-12T03:31:00.532Z,99397
2023-11-12T03:32:00.495Z,99397
2023-11-12T03:33:00.493Z,99397
2023-11-12T03:34:00.456Z,99397
2023-11-12T03:35:00.497Z,99394
2023-11-12T03:36:00.480Z,99394
2023-11-12T03:37:00.501Z,99394
2023-11-12T03:38:00.485Z,99394
2023-11-12T03:39:00.454Z,99394
2023-11-12T03:40:00.548Z,99394
2023-11-12T03:41:00.489Z,99394
2023-11-12T03:42:00.486Z,99394
2023-11-12T03:43:00.455Z,99394
2023-11-12T03:44:00.501Z,99394
2023-11-12T03:45:00.537Z,99393
2023-11-12T03:46:00.450Z,99393
2023-11-12T03:47:00.515Z,99393
2023-11-12T03:48:00.504Z,99393
2023-11-12T03:49:00.450Z,99393
2023-11-12T03:50:00.476Z,99400
2023-11-12T03:51:00.449Z,99400
2023-11-12T03:52:00.579Z,99400
2023-11-12T03:53:00.459Z,99400
2023-11-12T03:54:00.560Z,99400
2023-11-12T03:55:00.495Z,99398
2023-11-12T03:56:00.492Z,99398
2023-11-12T03:57:00.468Z,99398
2023-11-12T03:58:00.479Z,99398
2023-11-12T03:59:00.465Z,99398
2023-11-12T04:00:00.488Z,99397
2023-11-12T04:01:00.517Z,99397
2023-11-12T04:02:00.505Z,99397
2023-11-12T04:03:00.660Z,99397
2023-11-12T04:04:00.629Z,99397
2023-11-12T04:05:00.667Z,99391
2023-11-12T04:06:00.453Z,99391
2023-11-12T04:07:00.547Z,99391
2023-11-12T04:08:00.474Z,99391
2023-11-12T04:09:00.489Z,99391
2023-11-12T04:10:00.505Z,99396
2023-11-12T04:11:00.530Z,99396
2023-11-12T04:12:00.540Z,99396
2023-11-12T04:13:00.455Z,99396
2023-11-12T04:14:00.493Z,99396
2023-11-12T04:15:00.470Z,99398
2023-11-12T04:16:00.646Z,99398
2023-11-12T04:17:00.460Z,99398
2023-11-12T04:18:00.499Z,99398
2023-11-12T04:19:00.971Z,99398
2023-11-12T04:20:00.466Z,99396
2023-11-12T04:21:00.447Z,99396
2023-11-12T04:22:00.461Z,99396
2023-11-12T04:23:00.534Z,99396
2023-11-12T04:24:00.508Z,99396
2023-11-12T04:25:00.454Z,99403
2023-11-12T04:26:00.500Z,99403
2023-11-12T04:27:00.487Z,99403
2023-11-12T04:28:00.461Z,99403
2023-11-12T04:29:00.452Z,99403
2023-11-12T04:30:00.495Z,99400
2023-11-12T04:31:00.481Z,99400
2023-11-12T04:32:00.505Z,99400
2023-11-12T04:33:00.464Z,99400
2023-11-12T04:34:00.452Z,99400
2023-11-12T04:35:00.464Z,99400
2023-11-12T04:36:00.451Z,99400
2023-11-12T04:37:00.482Z,99400
2023-11-12T04:38:00.453Z,99400
2023-11-12T04:39:00.450Z,99400
2023-11-12T04:40:00.484Z,99399
2023-11-12T04:41:00.510Z,99399
2023-11-12T04:42:00.505Z,99399
2023-11-12T04:43:00.450Z,99399
2023-11-12T04:44:00.801Z,99399
2023-11-12T04:45:00.522Z,99394
2023-11-12T04:46:00.545Z,99394
2023-11-12T04:47:00.469Z,99394
2023-11-12T04:48:00.475Z,99394
2023-11-12T04:49:00.449Z,99394
2023-11-12T04:50:00.530Z,99389
2023-11-12T04:51:00.495Z,99389
2023-11-12T04:52:00.502Z,99389
2023-11-12T04:53:00.455Z,99389
2023-11-12T04:54:00.460Z,99389
2023-11-12T04:55:00.461Z,99390
2023-11-12T04:56:00.459Z,99390
2023-11-12T04:57:00.481Z,99390
2023-11-12T04:58:00.514Z,99390
2023-11-12T04:59:00.512Z,99390
2023-11-12T05:00:00.855Z,99394
2023-11-12T05:01:00.489Z,99394
2023-11-12T05:02:00.493Z,99394
2023-11-12T05:03:00.534Z,99394
2023-11-12T05:04:00.664Z,99394
2023-11-12T05:05:00.558Z,99388
2023-11-12T05:06:00.468Z,99388
2023-11-12T05:07:00.451Z,99388
2023-11-12T05:08:00.488Z,99388
2023-11-12T05:09:00.499Z,99388
2023-11-12T05:10:00.503Z,99381
2023-11-12T05:11:00.497Z,99381
2023-11-12T05:12:00.457Z,99381
2023-11-12T05:13:00.525Z,99381
2023-11-12T05:14:00.491Z,99381
2023-11-12T05:15:00.801Z,99383
2023-11-12T05:16:00.559Z,99383
2023-11-12T05:17:00.476Z,99383
2023-11-12T05:18:00.539Z,99383
2023-11-12T05:19:00.499Z,99383
2023-11-12T05:20:00.495Z,99380
2023-11-12T05:21:00.453Z,99380
2023-11-12T05:22:00.486Z,99380
2023-11-12T05:23:00.489Z,99380
2023-11-12T05:24:00.493Z,99380
2023-11-12T05:25:00.485Z,99371
2023-11-12T05:26:00.448Z,99371
2023-11-12T05:27:00.500Z,99371
2023-11-12T05:28:00.468Z,99371
2023-11-12T05:29:00.457Z,99371
2023-11-12T05:30:00.514Z,99370
2023-11-12T05:31:00.638Z,99370
2023-11-12T05:32:00.494Z,99370
2023-11-12T05:33:00.544Z,99370
2023-11-12T05:34:00.714Z,99370
2023-11-12T05:35:00.479Z,99369
2023-11-12T05:36:00.465Z,99369
2023-11-12T05:37:00.523Z,99369
2023-11-12T05:38:00.455Z,99369
2023-11-12T05:39:00.452Z,99369
2023-11-12T05:40:00.459Z,99372
2023-11-12T05:41:00.526Z,99372
2023-11-12T05:42:00.458Z,99372
2023-11-12T05:43:00.505Z,99372
2023-11-12T05:44:00.453Z,99372
2023-11-12T05:45:00.581Z,99368
2023-11-12T05:46:00.461Z,99368
2023-11-12T05:47:00.502Z,99368
2023-11-12T05:48:00.591Z,99368
2023-11-12T05:49:00.494Z,99368
2023-11-12T05:50:00.497Z,99370
2023-11-12T05:51:00.490Z,99370
2023-11-12T05:52:00.511Z,99370
2023-11-12T05:53:00.492Z,99370
2023-11-12T05:54:00.456Z,99370
2023-11-12T05:55:00.487Z,99375
2023-11-12T05:56:00.506Z,99375
2023-11-12T05:57:00.448Z,99375
2023-11-12T05:58:00.515Z,99375
2023-11-12T05:59:00.466Z,99375
2023-11-12T06:00:00.574Z,99385
2023-11-12T06:01:00.548Z,99385
2023-11-12T06:02:00.544Z,99385
2023-11-12T06:03:00.553Z,99385
2023-11-12T06:04:00.650Z,99385
2023-11-12T06:05:00.503Z,99391
2023-11-12T06:06:00.497Z,99391
2023-11-12T06:07:00.456Z,99391
2023-11-12T06:08:01.748Z,99391
2023-11-12T06:09:00.461Z,99391
2023-11-12T06:10:00.684Z,99400
2023-11-12T06:11:00.476Z,99400
2023-11-12T06:12:00.466Z,99400
2023-11-12T06:13:00.478Z,99400
2023-11-12T06:14:00.478Z,99400
2023-11-12T06:15:00.591Z,99411
2023-11-12T06:16:00.458Z,99411
2023-11-12T06:17:00.685Z,99411
2023-11-12T06:18:00.573Z,99411
2023-11-12T06:19:00.451Z,99411
2023-11-12T06:20:00.615Z,99422
2023-11-12T06:21:00.616Z,99422
2023-11-12T06:22:00.564Z,99422
2023-11-12T06:23:00.494Z,99422
2023-11-12T06:24:00.489Z,99422
2023-11-12T06:25:00.539Z,99420
2023-11-12T06:26:00.497Z,99420
2023-11-12T06:27:00.498Z,99420
2023-11-12T06:28:00.465Z,99420
2023-11-12T06:29:00.527Z,99420
2023-11-12T06:30:00.626Z,99409
2023-11-12T06:31:00.471Z,99409
2023-11-12T06:32:00.487Z,99409
2023-11-12T06:33:00.700Z,99409
2023-11-12T06:34:00.567Z,99409
2023-11-12T06:35:00.700Z,99400
2023-11-12T06:36:00.471Z,99400
2023-11-12T06:37:00.663Z,99400
2023-11-12T06:38:00.451Z,99400
2023-11-12T06:39:00.534Z,99400
2023-11-12T06:40:00.852Z,99406
2023-11-12T06:41:00.488Z,99406
2023-11-12T06:42:00.626Z,99406
2023-11-12T06:43:00.466Z,99406
2023-11-12T06:44:00.496Z,99406
2023-11-12T06:45:00.744Z,99397
2023-11-12T06:46:00.487Z,99397
2023-11-12T06:47:00.505Z,99397
2023-11-12T06:48:00.546Z,99397
2023-11-12T06:49:00.452Z,99397
2023-11-12T06:50:01.407Z,99396
2023-11-12T06:51:00.494Z,99396
2023-11-12T06:52:01.320Z,99396
2023-11-12T06:53:00.468Z,99396
2023-11-12T06:54:00.455Z,99396
2023-11-12T06:55:00.758Z,99396
2023-11-12T06:56:01.900Z,99396
2023-11-12T06:57:00.481Z,99396
2023-11-12T06:58:00.448Z,99396
2023-11-12T06:59:00.805Z,99396
2023-11-12T07:00:00.608Z,99403
2023-11-12T07:01:00.592Z,99403
2023-11-12T07:02:00.529Z,99403
2023-11-12T07:03:00.532Z,99403
2023-11-12T07:04:00.699Z,99403
2023-11-12T07:05:00.635Z,99406
2023-11-12T07:06:00.490Z,99406
2023-11-12T07:07:09.204Z,99406
2023-11-12T07:08:00.507Z,99406
2023-11-12T07:09:00.499Z,99406
2023-11-12T07:10:00.445Z,99413
2023-11-12T07:11:00.453Z,99413
2023-11-12T07:12:00.496Z,99413
2023-11-12T07:13:00.524Z,99413
2023-11-12T07:14:00.486Z,99413
2023-11-12T07:15:00.687Z,99424
2023-11-12T07:16:00.516Z,99424
2023-11-12T07:17:00.679Z,99424
2023-11-12T07:18:00.543Z,99424
2023-11-12T07:19:00.511Z,99424
2023-11-12T07:20:00.628Z,99424
2023-11-12T07:21:00.477Z,99424
2023-11-12T07:22:00.466Z,99424
2023-11-12T07:23:00.500Z,99424
2023-11-12T07:24:00.883Z,99424
2023-11-12T07:25:01.565Z,99434
2023-11-12T07:26:00.455Z,99434
2023-11-12T07:27:00.445Z,99434
2023-11-12T07:28:00.451Z,99434
2023-11-12T07:29:00.479Z,99434
2023-11-12T07:30:00.673Z,99434
2023-11-12T07:31:00.597Z,99440
2023-11-12T07:32:00.496Z,99440
2023-11-12T07:33:00.527Z,99440
2023-11-12T07:34:00.499Z,99440
2023-11-12T07:35:00.588Z,99440
2023-11-12T07:36:00.454Z,99444
2023-11-12T07:37:00.462Z,99444
2023-11-12T07:38:00.461Z,99444
2023-11-12T07:39:00.450Z,99444
2023-11-12T07:40:00.669Z,99454
2023-11-12T07:41:00.480Z,99454
2023-11-12T07:42:00.452Z,99454
2023-11-12T07:43:00.454Z,99454
2023-11-12T07:44:01.629Z,99454
2023-11-12T07:45:07.073Z,99454
2023-11-12T07:46:00.587Z,99456
2023-11-12T07:47:00.554Z,99456
2023-11-12T07:48:00.637Z,99456
2023-11-12T07:49:00.450Z,99456
2023-11-12T07:50:00.621Z,99456
2023-11-12T07:51:00.455Z,99465
2023-11-12T07:52:00.510Z,99465
2023-11-12T07:53:00.496Z,99465
2023-11-12T07:54:00.514Z,99465
2023-11-12T07:55:00.721Z,99465
2023-11-12T07:56:00.524Z,99465
2023-11-12T07:57:00.503Z,99465
2023-11-12T07:58:00.470Z,99465
2023-11-12T07:59:00.481Z,99465
2023-11-12T08:00:00.647Z,99465
2023-11-12T08:01:00.588Z,99481
2023-11-12T08:02:00.481Z,99481
2023-11-12T08:03:00.497Z,99481
2023-11-12T08:04:00.546Z,99481
2023-11-12T08:05:00.667Z,99481
2023-11-12T08:06:00.459Z,99483
2023-11-12T08:07:00.487Z,99483
2023-11-12T08:08:00.463Z,99483
2023-11-12T08:09:00.467Z,99483
2023-11-12T08:10:00.661Z,99483
2023-11-12T08:11:00.484Z,99491
2023-11-12T08:12:00.456Z,99491
2023-11-12T08:13:00.485Z,99491
2023-11-12T08:14:00.477Z,99491
2023-11-12T08:15:00.681Z,99491
2023-11-12T08:16:00.578Z,99492
2023-11-12T08:17:00.543Z,99492
2023-11-12T08:18:00.558Z,99492
2023-11-12T08:19:00.461Z,99492
2023-11-12T08:20:00.728Z,99492
2023-11-12T08:21:00.473Z,99488
2023-11-12T08:22:00.516Z,99488
2023-11-12T08:23:00.485Z,99488
2023-11-12T08:24:00.510Z,99488
2023-11-12T08:25:00.458Z,99488
2023-11-12T08:26:03.160Z,99488
2023-11-12T08:27:00.483Z,99488
2023-11-12T08:28:00.591Z,99488
2023-11-12T08:29:00.457Z,99488
2023-11-12T08:30:00.642Z,99488
2023-11-12T08:31:00.450Z,99483
2023-11-12T08:32:00.520Z,99483
2023-11-12T08:33:00.560Z,99483
2023-11-12T08:34:00.509Z,99483
2023-11-12T08:35:00.664Z,99483
2023-11-12T08:36:00.471Z,99477
2023-11-12T08:37:00.553Z,99477
2023-11-12T08:38:00.656Z,99477
2023-11-12T08:39:00.763Z,99477
2023-11-12T08:40:00.464Z,99477
2023-11-12T08:41:00.481Z,99483
2023-11-12T08:42:00.502Z,99483
2023-11-12T08:43:00.453Z,99483
2023-11-12T08:44:00.484Z,99483
2023-11-12T08:45:00.524Z,99483
2023-11-12T08:46:00.585Z,99486
2023-11-12T08:47:00.478Z,99486
2023-11-12T08:48:00.580Z,99486
2023-11-12T08:49:00.596Z,99486
2023-11-12T08:50:00.464Z,99486
2023-11-12T08:51:00.664Z,99489
2023-11-12T08:52:00.469Z,99489
2023-11-12T08:53:00.474Z,99489
2023-11-12T08:54:00.563Z,99489
2023-11-12T08:55:00.453Z,99489
2023-11-12T08:56:00.495Z,99495
2023-11-12T08:57:01.436Z,99495
2023-11-12T08:58:00.617Z,99495
2023-11-12T08:59:00.511Z,99495
2023-11-12T09:00:00.524Z,99495
2023-11-12T09:01:00.556Z,99497
2023-11-12T09:02:00.461Z,99497
2023-11-12T09:03:00.676Z,99497
2023-11-12T09:04:00.555Z,99497
2023-11-12T09:05:01.014Z,99510
2023-11-12T09:06:00.452Z,99510
2023-11-12T09:07:00.741Z,99510
2023-11-12T09:08:00.455Z,99510
2023-11-12T09:09:00.456Z,99510
2023-11-12T09:10:00.514Z,99510
2023-11-12T09:11:00.444Z,99514
2023-11-12T09:12:00.474Z,99514
2023-11-12T09:13:00.473Z,99514
2023-11-12T09:14:00.528Z,99514
2023-11-12T09:15:00.476Z,99514
2023-11-12T09:16:00.477Z,99503
2023-11-12T09:17:00.544Z,99503
2023-11-12T09:18:00.536Z,99503
2023-11-12T09:19:00.631Z,99503
2023-11-12T09:20:00.458Z,99503
2023-11-12T09:21:00.522Z,99508
2023-11-12T09:22:00.450Z,99508
2023-11-12T09:23:00.516Z,99508
2023-11-12T09:24:00.484Z,99508
2023-11-12T09:25:09.397Z,99523
2023-11-12T09:26:00.696Z,99523
2023-11-12T09:27:00.463Z,99523
2023-11-12T09:28:02.194Z,99523
2023-11-12T09:29:00.490Z,99523
2023-11-12T09:30:00.491Z,99523
2023-11-12T09:31:01.010Z,99532
2023-11-12T09:32:00.532Z,99532
2023-11-12T09:33:00.751Z,99532
2023-11-12T09:34:00.587Z,99532
2023-11-12T09:35:00.456Z,99532
2023-11-12T09:36:00.460Z,99535
2023-11-12T09:37:00.543Z,99535
2023-11-12T09:38:00.491Z,99535
2023-11-12T09:39:00.630Z,99535
2023-11-12T09:40:00.885Z,99535
2023-11-12T09:41:00.565Z,99544
2023-11-12T09:42:02.915Z,99544
2023-11-12T09:43:00.470Z,99544
2023-11-12T09:44:00.731Z,99544
2023-11-12T09:45:02.797Z,99541
2023-11-12T09:46:02.881Z,99541
2023-11-12T09:47:07.095Z,99541
2023-11-12T09:48:07.306Z,99541
2023-11-12T09:49:01.733Z,99541
2023-11-12T09:50:01.688Z,99548
2023-11-12T09:51:00.792Z,99548
2023-11-12T09:52:00.501Z,99548
2023-11-12T09:53:00.485Z,99548
2023-11-12T09:54:01.029Z,99548
2023-11-12T09:55:01.019Z,99558
2023-11-12T09:56:00.502Z,99558
2023-11-12T09:57:08.396Z,99558
2023-11-12T09:58:00.487Z,99558
2023-11-12T09:59:00.489Z,99558
2023-11-12T10:00:02.455Z,99558
2023-11-12T10:01:00.469Z,99565
2023-11-12T10:02:01.994Z,99565
2023-11-12T10:03:05.171Z,99565
2023-11-12T10:04:00.601Z,99565
2023-11-12T10:05:00.648Z,99565
2023-11-12T10:06:02.070Z,99566
2023-11-12T10:07:01.399Z,99566
2023-11-12T10:08:01.045Z,99566
2023-11-12T10:09:00.481Z,99566
2023-11-12T10:10:30.357Z,99561
2023-11-12T10:11:17.036Z,99561
2023-11-12T10:12:03.717Z,99561
2023-11-12T10:13:00.559Z,99561
2023-11-12T10:14:00.455Z,99561
2023-11-12T10:15:00.554Z,99561
2023-11-12T10:16:00.588Z,99568
2023-11-12T10:17:08.266Z,99568
2023-11-12T10:18:02.513Z,99568
2023-11-12T10:19:06.469Z,99568
2023-11-12T10:20:00.453Z,99568
2023-11-12T10:21:07.514Z,99565
2023-11-12T10:22:00.846Z,99565
2023-11-12T10:23:00.463Z,99565
2023-11-12T10:24:04.188Z,99565
2023-11-12T10:25:00.478Z,99565
2023-11-12T10:26:00.594Z,99572
2023-11-12T10:27:01.447Z,99572
2023-11-12T10:28:00.446Z,99572
2023-11-12T10:29:00.524Z,99572
2023-11-12T10:30:15.879Z,99564
2023-11-12T10:31:00.508Z,99564
2023-11-12T10:32:00.549Z,99564
2023-11-12T10:33:13.429Z,99564
2023-11-12T10:34:00.627Z,99564
2023-11-12T10:35:00.501Z,99564
2023-11-12T10:36:09.005Z,99561
2023-11-12T10:37:00.508Z,99561
2023-11-12T10:38:00.447Z,99561
2023-11-12T10:39:04.008Z,99561
2023-11-12T10:40:05.181Z,99555
2023-11-12T10:41:01.324Z,99555
2023-11-12T10:42:00.578Z,99555
2023-11-12T10:43:08.684Z,99555
2023-11-12T10:44:02.333Z,99555
2023-11-12T10:45:00.747Z,99555
2023-11-12T10:46:01.293Z,99545
2023-11-12T10:47:03.628Z,99545
2023-11-12T10:48:01.727Z,99545
2023-11-12T10:49:01.841Z,99545
2023-11-12T10:50:00.577Z,99545
2023-11-12T10:51:01.829Z,99541
2023-11-12T10:52:00.904Z,99541
2023-11-12T10:53:01.331Z,99541
2023-11-12T10:54:01.956Z,99541
2023-11-12T10:55:02.402Z,99540
2023-11-12T10:56:01.082Z,99540
2023-11-12T10:57:01.061Z,99540
2023-11-12T10:58:01.788Z,99540
2023-11-12T10:59:01.598Z,99540
2023-11-12T11:00:02.307Z,99547
2023-11-12T11:01:01.814Z,99547
2023-11-12T11:02:00.776Z,99547
2023-11-12T11:03:00.981Z,99547
2023-11-12T11:04:01.976Z,99547
2023-11-12T11:05:01.525Z,99549
2023-11-12T11:06:00.524Z,99549
2023-11-12T11:07:00.548Z,99549
2023-11-12T11:08:00.494Z,99549
2023-11-12T11:09:00.502Z,99549
2023-11-12T11:10:00.561Z,99549
2023-11-12T11:11:01.379Z,99535
2023-11-12T11:12:00.559Z,99535
2023-11-12T11:13:01.407Z,99535
2023-11-12T11:14:30.419Z,99535
2023-11-12T11:15:30.480Z,99526
2023-11-12T11:16:00.670Z,99526
2023-11-12T11:17:00.581Z,99526
2023-11-12T11:18:00.576Z,99526
2023-11-12T11:19:00.652Z,99526
2023-11-12T11:20:00.529Z,99526
2023-11-12T11:21:03.678Z,99508
2023-11-12T11:22:30.418Z,99508
2023-11-12T11:23:30.415Z,99508
2023-11-12T11:24:01.447Z,99508
2023-11-12T11:25:30.426Z,99508
2023-11-12T11:26:30.618Z,99508
2023-11-12T11:27:08.298Z,99508
2023-11-12T11:28:30.436Z,99508
2023-11-12T11:29:00.457Z,99508
2023-11-12T11:30:07.804Z,99497
2023-11-12T11:31:15.889Z,99497
2023-11-12T11:32:11.723Z,99497
2023-11-12T11:33:02.458Z,99497
2023-11-12T11:34:01.496Z,99497
2023-11-12T11:35:02.184Z,99490
2023-11-12T11:36:07.003Z,99490
2023-11-12T11:37:01.259Z,99490
2023-11-12T11:38:07.777Z,99490
2023-11-12T11:39:03.691Z,99490
2023-11-12T11:40:26.597Z,99476
2023-11-12T11:41:00.513Z,99476
2023-11-12T11:42:03.647Z,99476
2023-11-12T11:43:30.440Z,99476
2023-11-12T11:44:30.413Z,99476
2023-11-12T11:45:00.451Z,99476
2023-11-12T11:46:15.853Z,99491
2023-11-12T11:47:04.278Z,99491
2023-11-12T11:48:03.536Z,99491
2023-11-12T11:49:01.393Z,99491
2023-11-12T11:50:00.527Z,99491
2023-11-12T11:51:02.495Z,99499
2023-11-12T11:52:00.509Z,99499
2023-11-12T11:53:01.074Z,99499
2023-11-12T11:54:03.470Z,99499
2023-11-12T11:55:01.848Z,99511
2023-11-12T11:56:03.837Z,99511
2023-11-12T11:57:00.920Z,99511
2023-11-12T11:58:04.365Z,99511
2023-11-12T11:59:00.643Z,99511
2023-11-12T12:00:01.944Z,99512
2023-11-12T12:01:01.048Z,99512
2023-11-12T12:02:00.807Z,99512
2023-11-12T12:03:00.510Z,99512
2023-11-12T12:04:00.959Z,99512
2023-11-12T12:05:00.680Z,99512
2023-11-12T12:06:13.320Z,99497
2023-11-12T12:07:00.476Z,99497
2023-11-12T12:08:00.586Z,99497
2023-11-12T12:09:00.455Z,99497
2023-11-12T12:10:01.708Z,99497
2023-11-12T12:11:13.826Z,99494
2023-11-12T12:12:00.491Z,99494
2023-11-12T12:13:00.585Z,99494
2023-11-12T12:14:02.189Z,99494
2023-11-12T12:15:04.667Z,99476
2023-11-12T12:16:00.752Z,99476
2023-11-12T12:17:08.214Z,99476
2023-11-12T12:18:15.662Z,99476
2023-11-12T12:19:01.202Z,99476
2023-11-12T12:20:00.448Z,99476
2023-11-12T12:21:02.412Z,99463
2023-11-12T12:22:00.518Z,99463
2023-11-12T12:23:00.526Z,99463
2023-11-12T12:24:00.814Z,99463
2023-11-12T12:25:00.624Z,99463
2023-11-12T12:26:00.503Z,99441
2023-11-12T12:27:08.015Z,99441
2023-11-12T12:28:00.574Z,99441
2023-11-12T12:29:00.506Z,99441
2023-11-12T12:30:00.678Z,99441
2023-11-12T12:31:00.571Z,99440
2023-11-12T12:32:11.258Z,99440
2023-11-12T12:33:12.892Z,99440
2023-11-12T12:34:01.227Z,99440
2023-11-12T12:35:00.466Z,99440
2023-11-12T12:36:00.474Z,99433
2023-11-12T12:37:02.172Z,99433
2023-11-12T12:38:03.622Z,99433
2023-11-12T12:39:01.474Z,99433
2023-11-12T12:40:01.844Z,99433
2023-11-12T12:41:00.950Z,99443
2023-11-12T12:42:03.490Z,99443
2023-11-12T12:43:00.504Z,99443
2023-11-12T12:44:00.566Z,99443
2023-11-12T12:45:00.659Z,99443
2023-11-12T12:46:00.563Z,99451
2023-11-12T12:47:00.487Z,99451
2023-11-12T12:48:09.614Z,99451
2023-11-12T12:49:00.512Z,99451
2023-11-12T12:50:16.865Z,99461
2023-11-12T12:51:00.836Z,99461
2023-11-12T12:52:01.145Z,99461
2023-11-12T12:53:16.249Z,99461